KNGU

Norfolk NS (Chambers Field) Airport

Norfolk, Virginia, USA
METAR KNGU 240659Z 00000KT 10SM FEW050 FEW280 21/17 A3010 RMK AO2 SLP194 T02060167
Observed Flight Rules
May-24 @ 06:59 UTC (38 minutes ago) Visual Flight Rules
Visibility Clouds
10 miles
  • Few at 5,000' AGL
  • Few at 28,000' AGL
Temperatures Readings
Current 21°C / 70°F
Dewpoint 17°C / 63°F
Humidity 78%
Altimeter 30.1" Hg
Pressure 1019.4 hPa
Elevation 5
METAR KNGU 240659Z 00000KT 10SM FEW050 FEW280 21/17 A3010 RMK AO2 SLP194 T02060167
Observed Flight Rules
May-24 @ 06:59 UTC
(38 minutes ago)
VFR
Clouds
  • Few at 5,000' AGL
  • Few at 28,000' AGL
Temperature Dewpoint
21°C / 70°F 17°C / 63°F
Humidity Altimeter Pressure
78% 30.1" Hg 1019.4 hPa